Time;durP1;ratioP1;P1;durP2;ratioP2;P2;SDS_P1;SDS_P2;PMS_P1;PMS_P2;Temp;Humidity;BMP_temperature;BMP_pressure;BME280_temperature;BME280_humidity;BME280_pressure;Samples;Min_cycle;Max_cycle;Signal;HPM_P1;HPM_P2
2022/02/01 06:18:40;;;;;;;;;;;;;;;2.29;81.22;100299.38;5749413;23;20029;-83
2022/02/01 06:21:06;;;;;;;;;;;;;;;2.33;81.45;100301.13;4965453;28;19926;-92
2022/02/01 06:23:31;;;;;;;;;;;;;;;2.30;81.28;100301.13;4953049;28;19929;-83
2022/02/01 06:25:57;;;;;;;;;;;;;;;2.27;81.59;100301.13;4950671;28;19922;-82
2022/02/01 06:28:23;;;;;;;;;;;;;;;2.16;81.32;100302.88;4960774;28;19919;-87
2022/02/01 06:30:49;;;;;;;;;;;;;;;2.17;81.41;100288.94;4975045;28;19922;-85
2022/02/01 06:33:15;;;;;;;;;;;;;;;2.25;81.37;100302.00;4955192;28;19949;-87
2022/02/01 06:35:40;;;;;;;;;;;;;;;2.19;81.17;100295.03;4964495;28;20283;-84
2022/02/01 06:38:06;;;;;;;;;;;;;;;2.17;81.40;100286.31;4957601;28;19942;-88
2022/02/01 06:40:31;;;;;;;;;;;;;;;2.24;81.33;100295.91;4953220;28;20370;-83
2022/02/01 06:42:57;;;;;;;;;;;;;;;2.26;81.23;100304.63;4968061;28;19928;-82
2022/02/01 06:45:22;;;;;;;;;;;;;;;2.17;81.30;100304.59;4966623;28;20401;-86
2022/02/01 06:47:48;;;;;;;;;;;;;;;2.13;81.54;100300.28;4964065;28;19960;-82
2022/02/01 06:50:16;;;;;;;;;;;;;;;2.21;81.59;100289.81;4964450;28;19972;-82
2022/02/01 06:52:41;;;;;;;;;;;;;;;2.12;81.80;100295.91;4964602;28;20377;-85
2022/02/01 06:55:06;;;;;;;;;;;;;;;2.19;81.62;100302.88;4964729;28;20005;-83
2022/02/01 06:57:35;;;;;;;;;;;;;;;2.22;81.42;100304.63;4964505;28;19922;-83
2022/02/01 07:00:01;;;;;;;;;;;;;;;2.27;82.11;100300.28;4964128;28;19925;-82
2022/02/01 07:02:26;;;;;;;;;;;;;;;2.51;86.54;100299.38;4963845;28;19914;-82
2022/02/01 07:04:51;;;;;;;;;;;;;;;2.57;87.63;100294.13;4963968;28;19922;-83
2022/02/01 07:07:16;;;;;;;;;;;;;;;2.73;89.59;100290.59;4964145;28;19914;-88
2022/02/01 07:09:42;;;;;;;;;;;;;;;2.96;92.60;100281.78;4964048;28;20429;-84
2022/02/01 07:12:07;;;;;;;;;;;;;;;2.85;93.28;100270.50;4962921;28;20016;-84
2022/02/01 07:14:32;;;;;;;;;;;;;;;2.78;93.70;100277.50;4963527;28;19915;-85
2022/02/01 07:16:58;;;;;;;;;;;;;;;2.77;93.44;100270.50;4962707;28;19922;-83
2022/02/01 07:19:23;;;;;;;;;;;;;;;2.79;93.23;100276.59;4962375;28;20337;-85
2022/02/01 07:21:49;;;;;;;;;;;;;;;2.76;92.89;100283.59;4962666;28;19925;-84
2022/02/01 07:24:17;;;;;;;;;;;;;;;2.76;92.81;100294.06;4963655;28;20333;-83
2022/02/01 07:26:52;;;;;;;;;;;;;;;2.65;92.33;100281.91;4964029;28;19922;-88
2022/02/01 07:29:17;;;;;;;;;;;;;;;2.73;92.16;100287.13;4964083;28;19918;-84
2022/02/01 07:31:43;;;;;;;;;;;;;;;2.65;91.77;100289.75;4963818;28;20025;-83
2022/02/01 07:34:08;;;;;;;;;;;;;;;2.65;91.21;100275.78;4960974;28;19929;-86
2022/02/01 07:36:34;;;;;;;;;;;;;;;2.66;90.67;100278.38;4946313;28;20368;-84
2022/02/01 07:38:59;;;;;;;;;;;;;;;2.65;89.87;100271.44;4945205;28;19918;-83
2022/02/01 07:41:25;;;;;;;;;;;;;;;2.58;89.26;100268.81;4963634;28;20366;-84
2022/02/01 07:43:53;;;;;;;;;;;;;;;2.58;89.04;100272.31;4964046;28;19922;-84
2022/02/01 07:46:19;;;;;;;;;;;;;;;2.48;88.57;100267.97;4963462;28;20370;-90
2022/02/01 08:58:59;;;;;;;;;;;;;;;2.22;82.29;100242.75;4964415;28;19929;-86
2022/02/01 09:01:24;;;;;;;;;;;;;;;2.25;82.08;100239.25;4966828;28;19926;-82
2022/02/01 09:03:50;;;;;;;;;;;;;;;2.25;81.85;100240.13;4958547;28;19922;-87
2022/02/01 09:06:15;;;;;;;;;;;;;;;2.24;81.91;100233.16;4949151;28;20293;-82
2022/02/01 09:08:40;;;;;;;;;;;;;;;2.25;81.57;100227.06;4964720;28;19977;-89
2022/02/01 09:11:07;;;;;;;;;;;;;;;2.24;81.20;100222.69;4956485;28;19919;-82
2022/02/01 09:13:33;;;;;;;;;;;;;;;2.20;81.13;100230.53;4965559;28;19926;-82
2022/02/01 09:15:58;;;;;;;;;;;;;;;2.25;81.11;100232.28;4965145;28;19922;-82
2022/02/01 09:18:23;;;;;;;;;;;;;;;2.28;80.77;100228.78;4965442;28;19969;-84
2022/02/01 09:20:50;;;;;;;;;;;;;;;2.29;80.55;100215.69;4970003;28;19946;-83
2022/02/01 09:23:15;;;;;;;;;;;;;;;2.22;80.69;100227.06;4948460;28;20621;-84
2022/02/01 09:25:40;;;;;;;;;;;;;;;2.24;80.76;100219.22;4964765;28;19972;-85
2022/02/01 09:28:06;;;;;;;;;;;;;;;2.24;80.73;100212.22;4970912;28;20297;-82
2022/02/01 09:30:32;;;;;;;;;;;;;;;2.25;80.65;100216.59;4968379;28;20013;-82
2022/02/01 09:32:59;;;;;;;;;;;;;;;2.27;80.51;100212.22;4970802;28;20013;-92
2022/02/01 09:35:24;;;;;;;;;;;;;;;2.28;80.44;100200.91;4951598;28;20348;-91
2022/02/01 09:37:49;;;;;;;;;;;;;;;2.29;80.34;100202.63;4952229;28;19962;-84
2022/02/01 09:40:15;;;;;;;;;;;;;;;2.33;80.05;100209.59;4964526;28;20313;-92
2022/02/01 09:42:40;;;;;;;;;;;;;;;2.28;79.83;100210.47;4951314;28;19985;-89
2022/02/01 09:45:06;;;;;;;;;;;;;;;2.26;79.85;100209.63;4951499;28;19919;-89
2022/02/01 09:47:36;;;;;;;;;;;;;;;2.26;79.58;100209.63;4951653;28;20385;-93
2022/02/01 09:50:02;;;;;;;;;;;;;;;2.27;79.37;100200.91;4970119;28;19930;-83
2022/02/01 09:52:28;;;;;;;;;;;;;;;2.22;79.27;100200.91;4968883;28;20013;-89
2022/02/01 09:54:54;;;;;;;;;;;;;;;2.27;79.09;100191.31;4967485;28;20235;-84
2022/02/01 09:57:22;;;;;;;;;;;;;;;2.29;78.68;100186.06;4949409;28;19926;-91
2022/02/01 09:59:55;;;;;;;;;;;;;;;2.30;78.56;100186.06;4965586;28;20153;-84
2022/02/01 10:02:21;;;;;;;;;;;;;;;2.33;78.34;100178.22;4967262;28;19918;-88
2022/02/01 10:05:00;;;;;;;;;;;;;;;2.35;78.10;100186.91;4954931;28;20396;-94
2022/02/01 10:07:25;;;;;;;;;;;;;;;2.38;77.96;100190.38;4961457;28;19922;-84
2022/02/01 10:09:57;;;;;;;;;;;;;;;2.39;77.93;100195.63;4948756;28;20711;-83
2022/02/01 10:12:26;;;;;;;;;;;;;;;2.41;77.32;100200.84;4952095;28;19926;-89
2022/02/01 10:14:55;;;;;;;;;;;;;;;2.42;77.12;100186.91;4949919;28;20326;-91
2022/02/01 10:17:34;;;;;;;;;;;;;;;2.40;76.99;100180.81;4948741;28;20300;-88
2022/02/01 10:20:00;;;;;;;;;;;;;;;2.46;77.04;100159.88;4946116;28;19957;-88
2022/02/01 10:22:30;;;;;;;;;;;;;;;2.47;76.88;100151.13;4947308;28;19972;-83
2022/02/01 10:24:55;;;;;;;;;;;;;;;2.52;76.67;100144.13;4963982;28;20851;-83
2022/02/01 10:27:21;;;;;;;;;;;;;;;2.50;76.34;100141.50;4962987;28;19926;-88
2022/02/01 10:30:01;;;;;;;;;;;;;;;2.51;76.43;100126.72;4943280;28;19929;-94
2022/02/01 10:32:41;;;;;;;;;;;;;;;2.50;76.58;100130.19;4964679;28;20285;-94
2022/02/01 10:38:18;;;;;;;;;;;;;;;2.59;76.01;100119.69;4963283;28;20354;-90
2022/02/01 10:40:44;;;;;;;;;;;;;;;2.57;75.68;100110.09;4958892;28;20352;-86
2022/02/01 10:43:22;;;;;;;;;;;;;;;2.58;75.57;100104.00;4956464;28;19926;-95
2022/02/01 10:45:49;;;;;;;;;;;;;;;2.64;75.48;100101.34;4943318;28;20433;-84
2022/02/01 10:48:15;;;;;;;;;;;;;;;2.63;75.34;100097.00;4960928;28;20363;-83
2022/02/01 10:50:40;;;;;;;;;;;;;;;2.65;75.31;100103.97;4960790;28;19923;-93
2022/02/01 10:53:15;;;;;;;;;;;;;;;2.71;75.07;100093.47;4945471;28;20304;-83
2022/02/01 10:55:41;;;;;;;;;;;;;;;2.63;75.24;100084.81;4940025;28;19922;-82
2022/02/01 10:58:06;;;;;;;;;;;;;;;2.65;74.99;100066.44;4959928;28;20026;-92
2022/02/01 11:00:32;;;;;;;;;;;;;;;2.72;74.85;100060.31;4945759;28;20001;-82
2022/02/01 11:02:57;;;;;;;;;;;;;;;2.77;74.65;100055.03;4959973;28;19968;-83
2022/02/01 11:05:24;;;;;;;;;;;;;;;2.71;74.82;100054.22;4942146;29;19937;-86
2022/02/01 11:07:52;;;;;;;;;;;;;;;2.77;74.68;100055.03;4954516;29;20397;-92
2022/02/01 11:10:17;;;;;;;;;;;;;;;2.72;74.48;100039.38;4950935;29;19926;-85
2022/02/01 11:12:43;;;;;;;;;;;;;;;2.78;74.23;100035.84;4951609;29;19930;-83
2022/02/01 11:15:18;;;;;;;;;;;;;;;2.88;74.37;100029.66;4950557;29;20018;-85
2022/02/01 11:17:45;;;;;;;;;;;;;;;2.90;74.17;100031.41;4934990;29;19922;-83
2022/02/01 11:20:11;;;;;;;;;;;;;;;2.79;73.98;100037.56;4954094;29;19918;-88
2022/02/01 11:22:39;;;;;;;;;;;;;;;2.89;74.23;100039.25;4951124;29;20332;-83
2022/02/01 11:25:16;;;;;;;;;;;;;;;2.90;74.25;100046.22;4952073;29;20004;-84
2022/02/01 11:27:47;;;;;;;;;;;;;;;2.96;74.03;100032.22;4936668;29;19992;-84
2022/02/01 11:30:13;;;;;;;;;;;;;;;2.98;74.14;100036.56;4952749;29;19947;-86
2022/02/01 11:32:41;;;;;;;;;;;;;;;3.00;73.93;100023.44;4951356;29;20490;-84
2022/02/01 11:35:08;;;;;;;;;;;;;;;3.01;73.72;100002.50;4952891;29;20034;-86
2022/02/01 11:37:33;;;;;;;;;;;;;;;3.03;73.93;99985.03;4954145;29;19950;-83
2022/02/01 11:39:59;;;;;;;;;;;;;;;3.06;73.73;99984.13;4952101;29;20362;-85
2022/02/01 11:42:33;;;;;;;;;;;;;;;3.08;73.50;99988.47;4952729;29;20007;-85
2022/02/01 11:45:08;;;;;;;;;;;;;;;3.05;73.43;99972.81;4953097;29;19923;-83
2022/02/01 11:47:37;;;;;;;;;;;;;;;3.07;73.25;99965.78;4951019;29;20457;-90
2022/02/01 11:50:10;;;;;;;;;;;;;;;3.04;73.26;99960.56;4952964;29;19927;-87
2022/02/01 11:52:49;;;;;;;;;;;;;;;3.09;73.19;99943.09;4952351;29;19931;-82
2022/02/01 11:55:16;;;;;;;;;;;;;;;3.09;73.10;99931.75;4950320;29;19932;-85
2022/02/01 11:57:43;;;;;;;;;;;;;;;3.11;72.85;99934.34;4952193;29;19956;-89
2022/02/01 12:00:14;;;;;;;;;;;;;;;3.08;73.11;99899.47;4950270;29;19923;-83
2022/02/01 12:02:45;;;;;;;;;;;;;;;3.13;72.91;99901.16;4951747;29;19922;-87
2022/02/01 12:05:26;;;;;;;;;;;;;;;3.19;72.85;99901.09;4951461;28;20386;-84
2022/02/01 12:08:09;;;;;;;;;;;;;;;3.14;72.95;99895.91;4952546;29;19927;-84
2022/02/01 12:10:42;;;;;;;;;;;;;;;3.15;72.99;99887.16;4948355;29;19926;-83
2022/02/01 12:13:09;;;;;;;;;;;;;;;3.16;72.90;99885.41;4953274;29;19922;-86
2022/02/01 12:15:36;;;;;;;;;;;;;;;3.20;72.58;99877.50;4934458;29;19933;-83
2022/02/01 12:18:20;;;;;;;;;;;;;;;3.20;72.45;99876.66;4952008;29;20386;-87
2022/02/01 12:20:54;;;;;;;;;;;;;;;3.24;72.39;99873.97;4952821;29;20270;-87
2022/02/01 12:23:23;;;;;;;;;;;;;;;3.21;72.27;99870.53;4951894;29;20511;-86
2022/02/01 12:25:50;;;;;;;;;;;;;;;3.23;72.28;99871.38;4931706;29;19939;-90
2022/02/01 12:28:16;;;;;;;;;;;;;;;3.30;72.23;99866.94;4952143;29;20021;-90
2022/02/01 12:30:42;;;;;;;;;;;;;;;3.28;72.14;99853.84;4952212;29;20453;-87
2022/02/01 12:33:14;;;;;;;;;;;;;;;3.28;72.20;99839.00;4952733;29;20367;-84
2022/02/01 12:35:40;;;;;;;;;;;;;;;3.30;72.22;99836.34;4952764;29;19954;-84
2022/02/01 12:38:09;;;;;;;;;;;;;;;3.39;72.30;99836.25;4951495;29;19926;-89
2022/02/01 12:40:37;;;;;;;;;;;;;;;3.38;72.56;99834.53;4934581;29;19973;-89
2022/02/01 12:43:08;;;;;;;;;;;;;;;3.35;72.20;99836.28;4934995;29;19972;-84
2022/02/01 12:48:19;;;;;;;;;;;;;;;3.42;72.25;99837.97;4951347;29;19933;-90
2022/02/01 12:50:55;;;;;;;;;;;;;;;3.55;73.29;99836.06;4952738;29;19954;-84
2022/02/01 12:53:20;;;;;;;;;;;;;;;3.79;75.57;99840.94;4935926;29;20009;-84
2022/02/01 12:55:46;;;;;;;;;;;;;;;3.84;77.95;99853.13;4931994;29;20009;-83
2022/02/01 12:58:15;;;;;;;;;;;;;;;3.93;79.94;99809.28;4935736;29;19922;-90
2022/02/01 13:00:41;;;;;;;;;;;;;;;3.92;81.59;99789.19;4944682;29;20259;-87
2022/02/01 13:03:06;;;;;;;;;;;;;;;3.86;82.87;99786.69;4934508;29;19946;-87
2022/02/01 13:05:32;;;;;;;;;;;;;;;3.79;84.22;99771.94;4934412;29;19923;-85
2022/02/01 13:20:58;;;;;;;;;;;;;;;3.82;92.66;99772.75;4955955;29;19981;-84
2022/02/01 13:23:33;;;;;;;;;;;;;;;4.46;95.26;99769.06;4934618;29;19927;-85
2022/02/01 13:25:59;;;;;;;;;;;;;;;4.59;97.95;99770.56;4934977;29;19926;-91
2022/02/01 13:28:26;;;;;;;;;;;;;;;4.68;100.00;99774.81;4955434;29;19922;-89
2022/02/01 13:30:52;;;;;;;;;;;;;;;4.76;100.00;99778.13;4950797;29;20948;-92
2022/02/01 13:33:18;;;;;;;;;;;;;;;4.81;100.00;99771.03;4953310;29;19933;-84
2022/02/01 13:35:48;;;;;;;;;;;;;;;4.90;100.00;99780.50;4956181;29;19918;-88
2022/02/01 13:38:14;;;;;;;;;;;;;;;4.92;100.00;99773.44;4954315;29;20017;-86
2022/02/01 13:40:39;;;;;;;;;;;;;;;4.99;100.00;99748.78;4936798;29;20342;-85
2022/02/01 13:43:37;;;;;;;;;;;;;;;5.06;100.00;99747.78;4956554;29;19918;-86
2022/02/01 13:46:02;;;;;;;;;;;;;;;5.15;100.00;99765.09;4918387;29;20402;-85
2022/02/01 13:48:29;;;;;;;;;;;;;;;5.18;100.00;99764.16;4955095;29;19926;-90
2022/02/01 13:50:56;;;;;;;;;;;;;;;5.21;100.00;99754.44;4955475;29;19990;-85
2022/02/01 13:53:21;;;;;;;;;;;;;;;5.27;100.00;99754.31;4935473;29;19922;-89
2022/02/01 13:55:57;;;;;;;;;;;;;;;5.28;100.00;99747.31;4954479;28;20432;-84
2022/02/01 13:58:22;;;;;;;;;;;;;;;5.34;100.00;99748.94;4938586;29;19931;-85
2022/02/01 14:00:49;;;;;;;;;;;;;;;5.34;100.00;99764.72;4938180;29;19984;-88
2022/02/01 14:03:41;;;;;;;;;;;;;;;5.37;100.00;99759.38;4952231;29;19922;-92
2022/02/01 14:06:15;;;;;;;;;;;;;;;5.38;100.00;99753.25;4953497;28;19926;-90
2022/02/01 14:27:42;;;;;;;;;;;;;;;4.85;100.00;99727.19;4950088;29;19977;-86
2022/02/01 14:35:25;;;;;;;;;;;;;;;3.94;100.00;99726.25;4954067;29;19926;-84
2022/02/01 14:38:05;;;;;;;;;;;;;;;3.88;99.17;99727.22;4954621;29;19929;-85
2022/02/01 14:43:24;;;;;;;;;;;;;;;3.77;97.17;99716.06;4953772;29;20367;-85
2022/02/01 14:45:50;;;;;;;;;;;;;;;3.66;96.29;99708.38;4953494;29;19927;-87
2022/02/01 14:48:15;;;;;;;;;;;;;;;3.55;95.54;99705.91;4951210;29;19941;-85
2022/02/01 14:50:40;;;;;;;;;;;;;;;3.62;95.18;99714.53;4951287;29;19954;-90
2022/02/01 14:53:05;;;;;;;;;;;;;;;3.54;94.58;99708.53;4950631;29;19979;-89
2022/02/01 14:55:39;;;;;;;;;;;;;;;3.51;94.30;99698.13;4952409;29;19962;-87
2022/02/01 15:12:03;;;;;;;;;;;;;;;3.34;91.22;99662.56;4950545;29;19977;-88
2022/02/01 15:14:28;;;;;;;;;;;;;;;3.26;90.79;99664.44;4954056;29;20333;-85
2022/02/01 15:16:53;;;;;;;;;;;;;;;3.27;90.47;99663.53;4954003;29;19922;-87
2022/02/01 15:19:19;;;;;;;;;;;;;;;3.30;89.97;99670.50;4951000;29;19919;-90
2022/02/01 15:21:46;;;;;;;;;;;;;;;3.22;89.53;99665.38;4931846;29;19961;-87
2022/02/01 15:24:12;;;;;;;;;;;;;;;3.20;89.49;99667.16;4932858;29;20638;-90
2022/02/01 15:26:40;;;;;;;;;;;;;;;3.24;89.18;99646.13;4948565;29;19928;-85
2022/02/01 15:29:05;;;;;;;;;;;;;;;3.03;88.83;99639.47;4951138;29;19922;-93
2022/02/01 15:31:31;;;;;;;;;;;;;;;3.15;88.73;99638.41;4936271;28;19929;-87
2022/02/01 15:33:57;;;;;;;;;;;;;;;3.20;88.27;99633.13;4949741;29;19930;-88
2022/02/01 15:36:22;;;;;;;;;;;;;;;3.00;88.05;99629.03;4936363;29;19926;-88
2022/02/01 15:55:32;;;;;;;;;;;;;;;2.96;86.51;99616.88;4949501;29;19929;-89
2022/02/01 15:57:54;;;;;;;;;;;;;;;3.04;86.25;99617.63;4951209;29;19930;-89
2022/02/01 16:00:24;;;;;;;;;;;;;;;2.94;85.90;99618.66;4935690;29;19933;-91
2022/02/01 16:02:50;;;;;;;;;;;;;;;2.90;85.80;99612.59;4934338;29;19933;-90
2022/02/01 16:05:15;;;;;;;;;;;;;;;2.91;85.92;99613.47;4934457;29;20326;-88
2022/02/01 16:07:42;;;;;;;;;;;;;;;2.91;85.64;99613.47;4932632;29;19922;-92
2022/02/01 16:10:16;;;;;;;;;;;;;;;2.88;85.18;99605.66;4934424;29;19938;-91
2022/02/01 16:12:41;;;;;;;;;;;;;;;2.85;85.49;99603.09;4935315;29;20573;-91
2022/02/01 16:15:09;;;;;;;;;;;;;;;2.88;85.30;99609.13;4937541;29;19994;-87
2022/02/01 16:17:34;;;;;;;;;;;;;;;2.92;85.53;99604.75;4935241;29;20452;-85
2022/02/01 16:20:00;;;;;;;;;;;;;;;2.78;84.99;99585.75;4936339;29;19924;-94
2022/02/01 16:22:25;;;;;;;;;;;;;;;2.75;84.98;99591.03;4953622;29;20409;-85
2022/02/01 16:24:50;;;;;;;;;;;;;;;2.84;85.04;99590.88;4951850;29;19927;-85
2022/02/01 16:27:16;;;;;;;;;;;;;;;2.78;84.60;99586.59;4952463;29;19922;-88
2022/02/01 16:29:41;;;;;;;;;;;;;;;2.68;84.80;99585.88;4951647;29;19922;-88
2022/02/01 16:32:08;;;;;;;;;;;;;;;2.78;84.88;99576.13;4936567;29;19922;-90
2022/02/01 16:34:33;;;;;;;;;;;;;;;2.81;84.74;99580.44;4936567;29;19923;-90
2022/02/01 16:36:58;;;;;;;;;;;;;;;2.88;84.74;99587.34;4953513;29;19942;-92
2022/02/01 16:39:24;;;;;;;;;;;;;;;2.80;84.56;99594.44;4936978;29;19926;-92
2022/02/01 16:41:56;;;;;;;;;;;;;;;2.67;84.36;99604.22;4935446;29;20293;-87
2022/02/01 16:44:22;;;;;;;;;;;;;;;2.77;84.42;99595.34;4953420;28;19993;-91
2022/02/01 16:46:47;;;;;;;;;;;;;;;2.79;84.19;99597.94;4939104;29;19961;-86
2022/02/01 16:49:14;;;;;;;;;;;;;;;2.67;84.09;99605.06;4939269;29;19933;-90
2022/02/01 16:51:41;;;;;;;;;;;;;;;2.70;84.05;99612.88;4940071;29;20288;-86
2022/02/01 16:54:11;;;;;;;;;;;;;;;2.67;83.73;99628.63;4940270;29;19930;-85
2022/02/01 16:56:53;;;;;;;;;;;;;;;2.66;83.69;99621.63;4938212;29;19981;-87
2022/02/01 16:59:24;;;;;;;;;;;;;;;2.70;83.54;99614.63;4940301;29;19934;-87
2022/02/01 17:01:49;;;;;;;;;;;;;;;2.68;83.47;99605.91;4940451;29;19958;-90
2022/02/01 17:04:15;;;;;;;;;;;;;;;2.64;83.41;99592.03;4940267;28;20392;-87
2022/02/01 17:06:40;;;;;;;;;;;;;;;2.67;83.50;99591.13;4939918;29;20050;-87
2022/02/01 17:09:11;;;;;;;;;;;;;;;2.77;83.61;99587.47;4957595;29;19970;-93
2022/02/01 17:11:53;;;;;;;;;;;;;;;2.80;83.73;99590.06;4955538;29;19922;-88
2022/02/01 17:17:21;;;;;;;;;;;;;;;2.69;83.47;99616.38;4957323;29;19921;-92
2022/02/01 17:22:30;;;;;;;;;;;;;;;2.65;83.21;99585.03;4956985;29;19973;-93
2022/02/01 17:24:55;;;;;;;;;;;;;;;2.64;83.44;99583.31;4956328;29;20004;-91
2022/02/01 17:27:21;;;;;;;;;;;;;;;2.65;83.41;99570.22;4956842;29;20374;-91
2022/02/01 17:29:46;;;;;;;;;;;;;;;2.68;83.43;99574.53;4939947;29;19922;-87
2022/02/01 17:32:11;;;;;;;;;;;;;;;2.62;83.11;99575.50;4956657;29;20449;-91
2022/02/01 17:34:37;;;;;;;;;;;;;;;2.65;83.29;99591.16;4956492;29;19919;-86
2022/02/01 17:37:02;;;;;;;;;;;;;;;2.67;83.46;99578.03;4956461;29;20448;-84
2022/02/01 17:39:27;;;;;;;;;;;;;;;2.70;83.09;99583.25;4939744;29;19926;-92
2022/02/01 17:41:53;;;;;;;;;;;;;;;2.68;83.25;99580.63;4938097;29;19918;-87
2022/02/01 17:44:18;;;;;;;;;;;;;;;2.67;82.94;99589.38;4939441;29;19919;-90
2022/02/01 17:46:47;;;;;;;;;;;;;;;2.65;82.74;99583.31;4956401;29;19962;-90
2022/02/01 17:49:14;;;;;;;;;;;;;;;2.65;82.69;99580.69;4956372;29;19918;-88
2022/02/01 17:54:24;;;;;;;;;;;;;;;2.63;82.57;99569.38;4956247;29;20000;-92
2022/02/01 17:56:50;;;;;;;;;;;;;;;2.58;82.55;99563.31;4954413;28;19954;-88
2022/02/01 17:59:16;;;;;;;;;;;;;;;2.56;82.90;99572.09;4956283;29;19925;-89
2022/02/01 18:01:41;;;;;;;;;;;;;;;2.58;83.42;99578.16;4954170;29;20005;-89
2022/02/01 18:04:07;;;;;;;;;;;;;;;2.49;83.42;99566.06;4955825;29;20362;-88
2022/02/01 18:06:32;;;;;;;;;;;;;;;2.50;83.52;99559.94;4956041;29;20378;-91
2022/02/01 18:08:57;;;;;;;;;;;;;;;2.54;83.61;99546.81;4956378;29;19923;-85
2022/02/01 18:11:31;;;;;;;;;;;;;;;2.50;83.68;99560.81;4937794;29;19919;-84
2022/02/01 18:14:16;;;;;;;;;;;;;;;2.51;83.39;99566.94;4956585;29;19919;-85
2022/02/01 18:16:45;;;;;;;;;;;;;;;2.49;83.41;99579.13;4957773;29;20329;-85
2022/02/01 18:19:12;;;;;;;;;;;;;;;2.50;83.52;99586.13;4955627;29;19923;-86
2022/02/01 18:21:37;;;;;;;;;;;;;;;2.46;83.44;99589.66;4954894;29;19929;-84
2022/02/01 18:24:02;;;;;;;;;;;;;;;2.48;83.46;99572.19;4955776;29;19926;-85
2022/02/01 18:26:29;;;;;;;;;;;;;;;2.54;83.43;99578.22;4955153;29;20378;-93
2022/02/01 18:28:55;;;;;;;;;;;;;;;2.54;83.33;99569.50;4955650;29;20021;-84
2022/02/01 18:31:20;;;;;;;;;;;;;;;2.51;83.18;99562.56;4955722;29;20005;-90
2022/02/01 18:33:46;;;;;;;;;;;;;;;2.49;83.21;99563.44;4956367;29;20326;-92
2022/02/01 18:36:18;;;;;;;;;;;;;;;2.47;83.28;99560.00;4955590;29;19985;-85
2022/02/01 18:38:44;;;;;;;;;;;;;;;2.44;83.10;99578.34;4955132;29;20424;-85
2022/02/01 18:41:13;;;;;;;;;;;;;;;2.44;83.15;99570.50;4954367;29;19929;-87
2022/02/01 18:43:41;;;;;;;;;;;;;;;2.43;83.08;99569.63;4954488;29;19919;-88
2022/02/01 18:46:11;;;;;;;;;;;;;;;2.48;82.64;99577.44;4937917;29;19919;-86
2022/02/01 18:48:40;;;;;;;;;;;;;;;2.46;82.74;99579.22;4955149;29;19925;-86
2022/02/01 18:51:34;;;;;;;;;;;;;;;2.45;82.53;99585.31;4955113;29;20358;-91
2022/02/01 18:56:46;;;;;;;;;;;;;;;2.49;82.22;99563.44;4954119;29;19960;-90
2022/02/01 18:59:23;;;;;;;;;;;;;;;2.48;82.37;99566.97;4954560;29;20029;-91
2022/02/01 19:07:25;;;;;;;;;;;;;;;2.46;82.28;99582.69;4953549;28;20515;-89
2022/02/01 19:12:39;;;;;;;;;;;;;;;2.44;81.88;99587.06;4954367;29;20342;-86
2022/02/01 19:15:05;;;;;;;;;;;;;;;2.43;81.70;99585.34;4954327;29;19953;-84
2022/02/01 19:17:30;;;;;;;;;;;;;;;2.45;81.57;99588.78;4937236;29;19981;-83
2022/02/01 19:19:56;;;;;;;;;;;;;;;2.44;81.44;99591.41;4953791;29;19927;-90
2022/02/01 19:22:22;;;;;;;;;;;;;;;2.45;81.27;99585.31;4954578;29;20286;-91
2022/02/01 19:24:53;;;;;;;;;;;;;;;2.42;81.22;99593.19;4936359;29;19953;-91
2022/02/01 19:27:20;;;;;;;;;;;;;;;2.45;81.30;99599.25;4954619;29;19969;-86
2022/02/01 19:29:45;;;;;;;;;;;;;;;2.45;81.21;99595.78;4954616;29;19929;-88
2022/02/01 19:32:13;;;;;;;;;;;;;;;2.48;81.24;99593.97;4937011;29;19919;-88
2022/02/01 19:34:39;;;;;;;;;;;;;;;2.44;81.20;99604.50;4955130;29;19950;-91
2022/02/01 19:37:04;;;;;;;;;;;;;;;2.46;81.25;99594.91;4937749;29;19918;-83
2022/02/01 19:39:30;;;;;;;;;;;;;;;2.46;81.06;99602.75;4937037;29;19966;-83
2022/02/01 19:41:58;;;;;;;;;;;;;;;2.46;81.06;99594.91;4953130;29;19924;-84
2022/02/01 19:44:27;;;;;;;;;;;;;;;2.47;80.70;99591.38;4953558;29;20002;-86
2022/02/01 19:46:58;;;;;;;;;;;;;;;2.50;80.61;99596.56;4936671;29;20282;-87
2022/02/01 19:49:23;;;;;;;;;;;;;;;2.51;80.43;99598.31;4935773;29;20009;-83
2022/02/01 19:51:49;;;;;;;;;;;;;;;2.51;80.28;99590.47;4954699;29;20014;-84
2022/02/01 19:54:14;;;;;;;;;;;;;;;2.47;80.15;99591.38;4953107;29;19922;-88
2022/02/01 19:56:41;;;;;;;;;;;;;;;2.52;80.22;99594.78;4952443;29;20430;-90
2022/02/01 19:59:07;;;;;;;;;;;;;;;2.52;79.95;99592.19;4936953;29;20009;-87
2022/02/01 20:01:40;;;;;;;;;;;;;;;2.48;79.89;99577.44;4954338;29;19957;-87
2022/02/01 20:04:07;;;;;;;;;;;;;;;2.51;79.79;99580.00;4935995;29;19918;-88
2022/02/01 20:06:36;;;;;;;;;;;;;;;2.52;79.65;99577.38;4936707;29;20336;-84
2022/02/01 20:09:05;;;;;;;;;;;;;;;2.53;79.67;99573.00;4953828;29;19964;-87
2022/02/01 20:11:31;;;;;;;;;;;;;;;2.57;79.29;99577.31;4952921;29;20424;-87
2022/02/01 20:13:57;;;;;;;;;;;;;;;2.51;79.09;99580.00;4936998;29;20013;-88
2022/02/01 20:16:22;;;;;;;;;;;;;;;2.53;79.01;99593.91;4954041;29;19977;-87
2022/02/01 20:18:51;;;;;;;;;;;;;;;2.53;78.83;99586.06;4938231;29;19929;-85
2022/02/01 20:21:17;;;;;;;;;;;;;;;2.56;78.75;99598.25;4957056;29;19929;-86
2022/02/01 20:23:42;;;;;;;;;;;;;;;2.56;78.84;99616.56;4940855;29;20393;-86
2022/02/01 20:26:07;;;;;;;;;;;;;;;2.56;78.60;99599.13;4956634;29;19922;-87
2022/02/01 20:28:32;;;;;;;;;;;;;;;2.53;78.39;99596.53;4940517;29;19918;-84
2022/02/01 20:30:58;;;;;;;;;;;;;;;2.56;78.33;99598.25;4940440;29;19929;-85
2022/02/01 20:33:24;;;;;;;;;;;;;;;2.59;78.21;99585.13;4957521;29;19934;-84
2022/02/01 20:35:50;;;;;;;;;;;;;;;2.62;78.10;99578.09;4940529;29;19922;-84
2022/02/01 20:38:20;;;;;;;;;;;;;;;2.64;77.97;99568.47;4940133;29;20371;-89
2022/02/01 20:40:47;;;;;;;;;;;;;;;2.64;78.02;99573.72;4956471;29;19922;-86
2022/02/01 20:43:12;;;;;;;;;;;;;;;2.67;77.89;99571.06;4939708;29;19930;-87
2022/02/01 20:45:39;;;;;;;;;;;;;;;2.66;78.29;99566.69;4954993;29;20005;-88
2022/02/01 20:48:05;;;;;;;;;;;;;;;2.66;77.80;99566.69;4956063;29;19966;-89
2022/02/01 20:50:30;;;;;;;;;;;;;;;2.71;77.66;99570.13;4939679;29;20356;-85
2022/02/01 20:52:56;;;;;;;;;;;;;;;2.67;77.40;99571.06;4956724;29;20403;-92
2022/02/01 20:55:21;;;;;;;;;;;;;;;2.72;77.09;99587.53;4956042;29;19922;-88
2022/02/01 20:57:46;;;;;;;;;;;;;;;2.69;77.16;99571.03;4940376;29;20017;-88
2022/02/01 21:00:13;;;;;;;;;;;;;;;2.68;76.87;99570.19;4957737;29;20413;-88
2022/02/01 21:02:38;;;;;;;;;;;;;;;2.74;76.84;99584.91;4939604;29;19965;-91
2022/02/01 21:05:04;;;;;;;;;;;;;;;2.75;76.94;99575.31;4956907;28;19922;-86
2022/02/01 21:07:32;;;;;;;;;;;;;;;2.72;76.67;99573.59;4955858;29;20271;-85
2022/02/01 21:09:57;;;;;;;;;;;;;;;2.75;76.56;99581.41;4955512;29;20248;-86
2022/02/01 21:12:23;;;;;;;;;;;;;;;2.78;76.31;99577.91;4956417;29;20378;-86
2022/02/01 21:14:49;;;;;;;;;;;;;;;2.76;76.16;99562.22;4939919;29;20017;-85
2022/02/01 21:17:14;;;;;;;;;;;;;;;2.75;76.16;99570.09;4956397;29;20303;-85
2022/02/01 21:19:40;;;;;;;;;;;;;;;2.80;76.28;99597.91;4955933;29;20370;-85
2022/02/01 21:22:05;;;;;;;;;;;;;;;2.78;76.09;99602.31;4956647;29;19976;-86
2022/02/01 21:24:30;;;;;;;;;;;;;;;2.78;75.99;99585.75;4956614;29;19925;-85
2022/02/01 21:26:56;;;;;;;;;;;;;;;2.84;75.63;99567.31;4955755;29;19922;-85
2022/02/01 21:29:22;;;;;;;;;;;;;;;2.87;75.65;99569.88;4956667;28;20030;-84
2022/02/01 21:31:47;;;;;;;;;;;;;;;2.89;75.84;99570.75;4938168;29;19944;-84
2022/02/01 21:34:12;;;;;;;;;;;;;;;2.93;75.69;99576.81;4956375;29;19956;-85
2022/02/01 21:36:38;;;;;;;;;;;;;;;2.94;75.56;99563.69;4939228;29;20285;-85
2022/02/01 21:39:05;;;;;;;;;;;;;;;2.91;75.53;99567.22;4956470;29;19966;-88
2022/02/01 21:41:30;;;;;;;;;;;;;;;2.95;75.65;99577.63;4955237;29;19930;-91
2022/02/01 21:43:55;;;;;;;;;;;;;;;2.99;75.67;99589.81;4939115;29;20318;-91
2022/02/01 21:46:21;;;;;;;;;;;;;;;2.96;75.35;99579.38;4956189;29;19922;-84
2022/02/01 21:48:46;;;;;;;;;;;;;;;2.98;75.19;99583.69;4939205;29;19922;-90
2022/02/01 21:51:12;;;;;;;;;;;;;;;2.99;75.09;99567.09;4955994;29;19919;-84
2022/02/01 21:53:38;;;;;;;;;;;;;;;3.02;75.09;99556.59;4938842;29;20041;-85
2022/02/01 21:56:03;;;;;;;;;;;;;;;3.05;75.03;99564.38;4955052;29;20014;-91
2022/02/01 21:58:28;;;;;;;;;;;;;;;3.05;75.01;99568.78;4957033;29;19990;-91